createdAt,value
2019-02-12T00:01:38.578Z,941.5
2019-02-12T00:04:44.528Z,941.6
2019-02-12T00:07:50.488Z,941.6
2019-02-12T00:10:56.549Z,941.7
2019-02-12T00:14:02.433Z,941.8
2019-02-12T00:17:08.467Z,941.6
2019-02-12T00:20:14.459Z,941.8
2019-02-12T00:23:20.395Z,941.9
2019-02-12T00:26:26.455Z,941.8
2019-02-12T00:29:32.413Z,942
2019-02-12T00:32:38.293Z,942.1
2019-02-12T00:35:47.418Z,942.1
2019-02-12T00:38:53.375Z,942
2019-02-12T00:41:59.250Z,941.9
2019-02-12T00:45:05.302Z,941.7
2019-02-12T00:48:11.169Z,941.8
2019-02-12T00:51:19.160Z,941.8
2019-02-12T00:54:25.535Z,941.9
2019-02-12T00:57:31.506Z,941.8
2019-02-12T01:00:37.543Z,941.8
2019-02-12T01:03:43.626Z,941.8
2019-02-12T01:06:49.590Z,941.8
2019-02-12T01:09:55.526Z,941.8
2019-02-12T01:13:01.589Z,941.8
2019-02-12T01:16:07.890Z,941.7
2019-02-12T01:19:16.844Z,941.8
2019-02-12T01:22:22.704Z,941.8
2019-02-12T01:25:28.614Z,941.7
2019-02-12T01:28:35.578Z,941.7
2019-02-12T01:31:41.455Z,941.7
2019-02-12T01:34:47.505Z,941.9
2019-02-12T01:37:53.375Z,942
2019-02-12T01:40:59.308Z,942.1
2019-02-12T01:44:05.201Z,942
2019-02-12T01:47:11.226Z,942
2019-02-12T01:50:17.186Z,941.9
2019-02-12T01:53:23.148Z,941.9
2019-02-12T01:56:29.120Z,941.8
2019-02-12T01:59:35.046Z,942
2019-02-12T02:02:41.073Z,941.9
2019-02-12T02:05:46.946Z,942
2019-02-12T02:08:52.853Z,942
2019-02-12T02:11:58.778Z,942.2
2019-02-12T02:15:04.762Z,942.2
2019-02-12T02:18:10.646Z,942.2
2019-02-12T02:21:16.676Z,942.1
2019-02-12T02:24:22.653Z,942.1
2019-02-12T02:27:28.523Z,942.1
2019-02-12T02:30:34.492Z,942.1
2019-02-12T02:33:40.555Z,942.1
2019-02-12T02:36:46.629Z,942
2019-02-12T02:39:52.497Z,942
2019-02-12T02:42:58.498Z,941.9
2019-02-12T02:46:04.379Z,942
2019-02-12T02:49:10.512Z,941.9
2019-02-12T02:52:16.455Z,942.1
2019-02-12T02:55:22.436Z,942.1
2019-02-12T02:58:28.392Z,942.1
2019-02-12T03:01:34.354Z,942.1
2019-02-12T03:04:40.460Z,942.1
2019-02-12T03:07:46.474Z,942.2
2019-02-12T03:10:53.611Z,942.1
2019-02-12T03:13:59.571Z,942.1
2019-02-12T03:17:05.445Z,942.1
2019-02-12T03:20:11.452Z,942.1
2019-02-12T03:23:17.500Z,942.1
2019-02-12T03:26:23.459Z,942.2
2019-02-12T03:29:29.522Z,942.2
2019-02-12T03:32:35.648Z,942.3
2019-02-12T03:35:42.535Z,942.3
2019-02-12T03:38:48.631Z,942.4
2019-02-12T03:41:54.618Z,942.5
2019-02-12T03:45:01.009Z,942.4
2019-02-12T03:48:06.966Z,942.4
2019-02-12T03:51:12.988Z,942.3
2019-02-12T03:54:18.946Z,942.4
2019-02-12T03:57:24.900Z,942.3
2019-02-12T04:00:30.954Z,942.3
2019-02-12T04:03:37.948Z,942.3
2019-02-12T04:06:43.908Z,942.3
2019-02-12T04:09:49.794Z,942.4
2019-02-12T04:12:55.768Z,942.4
2019-02-12T04:16:01.679Z,942.5
2019-02-12T04:19:10.753Z,942.4
2019-02-12T04:22:23.961Z,942.5
2019-02-12T04:25:29.875Z,942.6
2019-02-12T04:28:35.789Z,942.6
2019-02-12T04:31:41.850Z,942.6
2019-02-12T04:34:47.777Z,942.6
2019-02-12T04:37:53.838Z,942.6
2019-02-12T04:40:59.900Z,942.6
2019-02-12T04:44:05.968Z,942.6
2019-02-12T04:47:11.843Z,942.7
2019-02-12T04:50:17.883Z,942.7
2019-02-12T04:53:23.943Z,942.8
2019-02-12T04:56:29.878Z,942.8
2019-02-12T04:59:35.964Z,942.8
2019-02-12T05:02:42.027Z,942.8
2019-02-12T05:05:47.910Z,942.8
2019-02-12T05:08:54.154Z,942.7
2019-02-12T05:12:02.158Z,942.8
2019-02-12T05:15:08.243Z,942.8
2019-02-12T05:18:14.178Z,942.9
2019-02-12T05:21:20.136Z,942.9
2019-02-12T05:24:26.104Z,943
2019-02-12T05:27:32.272Z,943
2019-02-12T05:30:38.144Z,943.1
2019-02-12T05:33:44.185Z,943.1
2019-02-12T05:36:50.176Z,943.2
2019-02-12T05:39:56.204Z,943.1
2019-02-12T05:43:02.109Z,943.2
2019-02-12T05:46:08.239Z,943.2
2019-02-12T05:49:14.257Z,943.3
2019-02-12T05:52:20.250Z,943.4
2019-02-12T05:55:26.236Z,943.6
2019-02-12T05:58:32.363Z,943.6
2019-02-12T06:01:38.336Z,1245.8
2019-02-12T06:04:44.288Z,1245.8
2019-02-12T06:07:50.255Z,1245.8
2019-02-12T06:10:56.231Z,1245.8
2019-02-12T06:14:02.271Z,1245.8
2019-02-12T06:17:08.352Z,1245.8
2019-02-12T06:20:14.465Z,1245.8
2019-02-12T06:23:20.373Z,1245.8
2019-02-12T06:26:26.324Z,1245.8
2019-02-12T06:29:32.326Z,1245.8
2019-02-12T06:32:38.263Z,1245.8
2019-02-12T06:35:44.316Z,1245.8
2019-02-12T06:38:50.248Z,1245.8
2019-02-12T06:41:56.152Z,1245.8
2019-02-12T06:45:02.150Z,1245.8
2019-02-12T06:48:08.155Z,1245.8
2019-02-12T06:51:14.108Z,1245.8
2019-02-12T06:54:22.528Z,1245.8
2019-02-12T06:57:28.465Z,1245.8
2019-02-12T07:00:34.451Z,1245.8
2019-02-12T07:03:40.343Z,1245.8
2019-02-12T07:06:46.470Z,1245.8
2019-02-12T07:09:52.350Z,1245.8
2019-02-12T07:12:58.288Z,1245.8
2019-02-12T07:16:06.407Z,1245.8
2019-02-12T07:19:12.355Z,1245.8
2019-02-12T07:22:19.429Z,1245.8
2019-02-12T07:25:25.454Z,1245.8
2019-02-12T07:28:31.392Z,1245.8
2019-02-12T07:31:37.419Z,1245.8
2019-02-12T07:34:43.484Z,1245.8
2019-02-12T07:37:49.543Z,1245.8
2019-02-12T07:40:55.428Z,1245.8
2019-02-12T07:44:01.372Z,1245.8
2019-02-12T07:47:07.529Z,1245.8
2019-02-12T07:50:13.898Z,1245.8
2019-02-12T07:53:20.053Z,1245.8
2019-02-12T07:56:35.862Z,1245.8
2019-02-12T07:59:41.739Z,1245.8
2019-02-12T08:02:49.434Z,1245.8
2019-02-12T08:05:57.429Z,1245.8
2019-02-12T08:09:06.039Z,1245.8
2019-02-12T08:12:12.107Z,1245.8
2019-02-12T08:15:18.131Z,1245.8
2019-02-12T08:18:24.091Z,1245.8
2019-02-12T08:21:30.147Z,1245.8
2019-02-12T08:24:36.153Z,1245.8
2019-02-12T08:27:42.462Z,1245.8
2019-02-12T08:30:49.717Z,1245.8
2019-02-12T08:33:57.912Z,1245.8
2019-02-12T08:37:03.980Z,1245.8
2019-02-12T08:40:10.083Z,1245.8
2019-02-12T08:43:16.104Z,1245.8
2019-02-12T08:46:22.140Z,1245.8
2019-02-12T08:49:28.276Z,1245.8
2019-02-12T08:52:34.295Z,1245.8
2019-02-12T08:55:40.171Z,1245.8
2019-02-12T08:58:46.258Z,1245.8
2019-02-12T09:01:52.333Z,1245.8
2019-02-12T09:04:58.388Z,1245.8
2019-02-12T09:08:04.491Z,1245.8
2019-02-12T09:11:10.684Z,1245.8
2019-02-12T09:14:16.553Z,1245.8
2019-02-12T09:17:22.743Z,1245.8
2019-02-12T09:20:28.816Z,1245.8
2019-02-12T09:23:34.821Z,1245.8
2019-02-12T09:26:40.757Z,1245.8
2019-02-12T09:29:46.845Z,1245.8
2019-02-12T09:32:52.857Z,1245.8
2019-02-12T09:35:59.233Z,1245.8
2019-02-12T09:39:05.583Z,1245.8
2019-02-12T09:42:11.726Z,1245.8
2019-02-12T09:45:17.635Z,1245.8
2019-02-12T09:48:23.756Z,1245.8
2019-02-12T09:51:29.703Z,1245.8
2019-02-12T09:54:35.649Z,1245.8
2019-02-12T09:57:41.916Z,1245.8
2019-02-12T10:00:47.915Z,1245.8
2019-02-12T10:03:53.836Z,1245.8
2019-02-12T10:06:59.844Z,1245.8
2019-02-12T10:10:06.784Z,1245.8
2019-02-12T10:13:12.843Z,1245.8
2019-02-12T10:16:18.948Z,1245.8
2019-02-12T10:19:24.863Z,1245.8
2019-02-12T10:22:30.992Z,1245.8
2019-02-12T10:25:37.127Z,1245.8
2019-02-12T10:28:50.102Z,1245.8
2019-02-12T10:31:56.424Z,1245.8
2019-02-12T10:35:12.223Z,1245.8
2019-02-12T10:38:18.600Z,1245.8
2019-02-12T10:41:24.698Z,1245.8
2019-02-12T10:44:30.962Z,1245.8
2019-02-12T10:47:36.998Z,1245.8
2019-02-12T10:50:43.257Z,1245.8
2019-02-12T10:53:49.309Z,1245.8
2019-02-12T10:56:55.374Z,1245.8
2019-02-12T11:00:01.685Z,1245.8
2019-02-12T11:03:07.566Z,1245.8
2019-02-12T11:06:13.654Z,1245.8
2019-02-12T11:09:19.685Z,1245.8
2019-02-12T11:11:06.366Z,946.5
2019-02-12T11:14:12.373Z,946.5
2019-02-12T11:17:18.315Z,946.6
2019-02-12T11:20:24.397Z,946.7
2019-02-12T11:23:30.273Z,946.7
2019-02-12T11:26:36.344Z,946.8
2019-02-12T11:29:42.434Z,946.8
2019-02-12T11:32:48.613Z,946.8
2019-02-12T11:35:54.482Z,946.8
2019-02-12T11:39:00.521Z,946.7
2019-02-12T11:42:06.479Z,946.8
2019-02-12T11:45:12.441Z,946.8
2019-02-12T11:48:19.247Z,946.7
2019-02-12T11:51:25.545Z,946.8
2019-02-12T11:54:32.056Z,946.8
2019-02-12T11:57:46.520Z,946.9
2019-02-12T12:00:52.630Z,947
2019-02-12T12:03:58.687Z,947.1
2019-02-12T12:07:04.702Z,947.1
2019-02-12T12:10:10.731Z,947.1
2019-02-12T12:13:16.831Z,947.2
2019-02-12T12:16:22.939Z,947.1
2019-02-12T12:19:31.644Z,947.1
2019-02-12T12:22:37.691Z,947.2
2019-02-12T12:25:43.759Z,947.2
2019-02-12T12:28:49.894Z,947.3
2019-02-12T12:31:55.875Z,947.3
2019-02-12T12:35:02.808Z,947.4
2019-02-12T12:38:08.914Z,947.5
2019-02-12T12:41:14.972Z,947.6
2019-02-12T12:44:21.936Z,947.6
2019-02-12T12:47:27.978Z,947.7
2019-02-12T12:50:34.170Z,947.7
2019-02-12T12:53:40.119Z,947.8
2019-02-12T12:56:46.417Z,947.8
2019-02-12T12:59:52.454Z,947.8
2019-02-12T13:02:58.601Z,947.9
2019-02-12T13:06:04.669Z,948
2019-02-12T13:09:10.821Z,948
2019-02-12T13:12:16.888Z,947.9
2019-02-12T13:15:23.058Z,948
2019-02-12T13:18:29.062Z,948.1
2019-02-12T13:21:35.052Z,948.2
2019-02-12T13:24:42.447Z,948.2
2019-02-12T13:27:48.738Z,948.2
2019-02-12T13:30:55.922Z,948.3
2019-02-12T13:34:01.982Z,948.3
2019-02-12T13:37:08.043Z,948.4
2019-02-12T13:40:15.501Z,948.4
2019-02-12T13:43:21.602Z,948.5
2019-02-12T13:46:27.670Z,948.6
2019-02-12T13:49:33.626Z,948.6
2019-02-12T13:52:39.639Z,948.7
2019-02-12T13:55:46.787Z,948.6
2019-02-12T13:58:52.948Z,948.7
2019-02-12T14:01:58.996Z,948.7
2019-02-12T14:05:06.405Z,948.7
2019-02-12T14:08:12.476Z,948.7
2019-02-12T14:11:18.568Z,948.8
2019-02-12T14:14:24.682Z,948.9
2019-02-12T14:17:31.876Z,948.9
2019-02-12T14:20:38.034Z,949
2019-02-12T14:23:44.199Z,949
2019-02-12T14:26:50.214Z,949.1
2019-02-12T14:29:56.212Z,949.1
2019-02-12T14:33:02.445Z,949.2
2019-02-12T14:36:08.532Z,949.3
2019-02-12T14:39:14.857Z,949.3
2019-02-12T14:42:21.069Z,949.4
2019-02-12T14:45:27.262Z,949.5
2019-02-12T14:48:33.324Z,949.5
2019-02-12T14:51:39.333Z,949.5
2019-02-12T14:54:45.438Z,949.6
2019-02-12T14:57:51.509Z,949.7
2019-02-12T15:00:57.574Z,949.7
2019-02-12T15:04:03.738Z,949.8
2019-02-12T15:07:09.894Z,949.7
2019-02-12T15:10:15.962Z,949.8
2019-02-12T15:13:22.211Z,949.7
2019-02-12T15:16:28.317Z,949.7
2019-02-12T15:19:34.560Z,949.6
2019-02-12T15:22:40.623Z,949.6
2019-02-12T15:25:46.829Z,949.7
2019-02-12T15:28:53.816Z,949.8
2019-02-12T15:31:59.832Z,949.8
2019-02-12T15:35:05.799Z,949.9
2019-02-12T15:38:11.831Z,950
2019-02-12T15:41:17.916Z,949.9
2019-02-12T15:44:23.973Z,950.1
2019-02-12T15:47:30.032Z,950.1
2019-02-12T15:50:37.742Z,950.1
2019-02-12T15:53:43.682Z,950.2
2019-02-12T15:56:49.753Z,950.3
2019-02-12T15:59:57.303Z,950.3
2019-02-12T16:03:03.324Z,950.4
2019-02-12T16:06:09.386Z,950.4
2019-02-12T16:09:18.700Z,950.5
2019-02-12T16:12:28.592Z,950.5
2019-02-12T16:15:37.362Z,950.6
2019-02-12T16:18:49.093Z,950.6
2019-02-12T16:21:55.262Z,950.7
2019-02-12T16:25:01.633Z,950.8
2019-02-12T16:28:07.693Z,950.8
2019-02-12T16:31:13.954Z,950.8
2019-02-12T16:34:21.518Z,950.9
2019-02-12T16:37:27.668Z,951
2019-02-12T16:40:33.793Z,951
2019-02-12T16:43:40.881Z,951.1
2019-02-12T16:46:46.955Z,951.2
2019-02-12T16:49:54.073Z,951.2
2019-02-12T16:53:02.133Z,951.3
2019-02-12T16:56:09.834Z,951.4
2019-02-12T16:59:15.991Z,951.4
2019-02-12T17:02:22.066Z,951.4
2019-02-12T17:05:30.574Z,951.5
2019-02-12T17:08:36.646Z,951.6
2019-02-12T17:11:42.902Z,951.6
2019-02-12T17:14:48.964Z,951.7
2019-02-12T17:17:56.150Z,951.7
2019-02-12T17:21:03.325Z,951.8
2019-02-12T17:24:09.618Z,951.9
2019-02-12T17:27:15.735Z,952
2019-02-12T17:30:21.737Z,952
2019-02-12T17:33:27.819Z,952
2019-02-12T17:36:33.921Z,952.1
2019-02-12T17:39:40.028Z,952
2019-02-12T17:42:46.081Z,952
2019-02-12T17:45:52.102Z,952
2019-02-12T17:48:58.314Z,952
2019-02-12T17:52:04.358Z,952
2019-02-12T17:55:10.391Z,952
2019-02-12T17:58:16.400Z,952
2019-02-12T18:01:22.407Z,952.1
2019-02-12T18:04:28.469Z,952.1
2019-02-12T18:07:34.483Z,952.2
2019-02-12T18:10:40.553Z,952.2
2019-02-12T18:13:46.581Z,952.2
2019-02-12T18:16:52.571Z,952.3
2019-02-12T18:19:58.732Z,952.4
2019-02-12T18:23:04.786Z,952.5
2019-02-12T18:26:10.798Z,952.5
2019-02-12T18:29:16.914Z,952.5
2019-02-12T18:32:23.081Z,952.7
2019-02-12T18:35:29.044Z,952.8
2019-02-12T18:38:35.083Z,952.7
2019-02-12T18:41:41.063Z,952.8
2019-02-12T18:44:47.072Z,952.7
2019-02-12T18:47:53.048Z,952.8
2019-02-12T18:50:59.149Z,952.8
2019-02-12T18:54:06.954Z,952.8
2019-02-12T18:57:13.010Z,952.9
2019-02-12T19:00:18.975Z,953
2019-02-12T19:03:25.044Z,953
2019-02-12T19:06:31.183Z,953.1
2019-02-12T19:09:37.367Z,953.1
2019-02-12T19:12:46.288Z,953.1
2019-02-12T19:15:52.137Z,953.2
2019-02-12T19:18:58.321Z,953.2
2019-02-12T19:22:04.276Z,953.3
2019-02-12T19:25:10.298Z,953.2
2019-02-12T19:28:16.348Z,953.3
2019-02-12T19:31:22.318Z,953.2
2019-02-12T19:34:28.477Z,953.3
2019-02-12T19:37:34.543Z,953.2
2019-02-12T19:40:40.508Z,953.3
2019-02-12T19:43:46.571Z,953.4
2019-02-12T19:46:52.570Z,953.4
2019-02-12T19:49:58.591Z,953.4
2019-02-12T19:53:04.652Z,953.4
2019-02-12T19:56:10.637Z,953.4
2019-02-12T19:59:16.931Z,953.5
2019-02-12T20:02:23.064Z,953.5
2019-02-12T20:08:59.846Z,953.6
2019-02-12T20:12:05.954Z,953.6
2019-02-12T20:15:12.091Z,953.7
2019-02-12T20:18:18.178Z,953.7
2019-02-12T20:21:24.304Z,953.7
2019-02-12T20:24:30.256Z,953.7
2019-02-12T20:27:37.498Z,953.8
2019-02-12T20:30:43.617Z,953.8
2019-02-12T20:33:57.727Z,953.8
2019-02-12T20:37:03.827Z,953.8
2019-02-12T20:40:10.147Z,953.8
2019-02-12T20:43:16.286Z,953.8
2019-02-12T20:46:22.322Z,953.8
2019-02-12T20:49:28.385Z,953.7
2019-02-12T20:52:34.386Z,953.8
2019-02-12T20:55:40.425Z,953.8
2019-02-12T20:58:46.382Z,953.9
2019-02-12T21:01:52.351Z,953.9
2019-02-12T21:04:58.431Z,953.9
2019-02-12T21:08:04.498Z,953.9
2019-02-12T21:11:10.445Z,953.9
2019-02-12T21:14:16.429Z,953.9
2019-02-12T21:17:22.477Z,954
2019-02-12T21:20:28.645Z,954
2019-02-12T21:23:34.702Z,954
2019-02-12T21:26:40.770Z,954
2019-02-12T21:29:48.563Z,954.1
2019-02-12T21:32:54.512Z,954.2
2019-02-12T21:36:00.665Z,954.2
2019-02-12T21:39:06.673Z,954.2
2019-02-12T21:42:12.601Z,954.2
2019-02-12T21:45:18.567Z,954.2
2019-02-12T21:48:24.685Z,954.3
2019-02-12T21:51:30.657Z,954.3
2019-02-12T21:54:36.634Z,954.3
2019-02-12T21:57:42.547Z,954.2
2019-02-12T22:00:48.534Z,954.3
2019-02-12T22:03:54.535Z,954.4
2019-02-12T22:07:00.542Z,954.5
2019-02-12T22:10:06.520Z,954.5
2019-02-12T22:13:12.565Z,954.5
2019-02-12T22:16:18.579Z,954.5
2019-02-12T22:19:24.542Z,954.5
2019-02-12T22:22:30.683Z,954.5
2019-02-12T22:25:36.623Z,954.5
2019-02-12T22:28:42.672Z,954.5
2019-02-12T22:31:48.646Z,954.5
2019-02-12T22:34:57.356Z,954.6
2019-02-12T22:38:03.350Z,954.5
2019-02-12T22:41:09.299Z,954.6
2019-02-12T22:44:15.238Z,954.7
2019-02-12T22:47:21.314Z,954.6
2019-02-12T22:50:27.262Z,954.7
2019-02-12T22:53:33.168Z,954.7
2019-02-12T22:56:39.134Z,954.7
2019-02-12T22:59:45.202Z,954.7
2019-02-12T23:02:51.163Z,954.8
2019-02-12T23:05:57.219Z,954.8
2019-02-12T23:09:03.280Z,954.8
2019-02-12T23:12:09.350Z,954.8
2019-02-12T23:15:15.308Z,954.8
2019-02-12T23:18:21.316Z,954.8
2019-02-12T23:21:27.192Z,954.8
2019-02-12T23:24:34.415Z,954.8
2019-02-12T23:27:40.349Z,954.9
2019-02-12T23:30:46.537Z,954.9
2019-02-12T23:33:52.600Z,955
2019-02-12T23:36:58.664Z,955
2019-02-12T23:40:04.776Z,955.1
2019-02-12T23:43:10.789Z,955.1
2019-02-12T23:46:16.933Z,955.2
2019-02-12T23:49:23.083Z,955.2
2019-02-12T23:52:29.089Z,955.2
2019-02-12T23:55:35.142Z,955.2
2019-02-12T23:58:41.104Z,955.3
